Edmond, Oklahoma
Current Conditions -  °F | °C
As of 8:53 AM on Tuesday 21 Oct 2014 (Local Time) from KPWA Reporting Station
Broken Clouds Broken Clouds  
Wind Chill: 65°   Ceiling: 6500
Heat Index: 65°   Visibility: 7mi
Dew Point: 60°   Wind: 8mph
Humidity: 84%   Direction: 200°SSW
Pressure: 30.09"   Gusts: NA
Location:  35.65°N, 97.48°W
Report Text: KPWA 211353Z 20007KT 7SM BKN065 18/16 A3009 RMK AO2 SLP180 T01830156
Loading
Personal Weather Stations






























Interactive Weather Map New forecast layout! Learn more

10-Day Weather Forecast

Advertisements
Track Severe Weather on mobile